sensor_id;sensor_type;location;lat;lon;timestamp;P1;durP1;ratioP1;P2;durP2;ratioP2
64615;SDS011;51027;42.162;24.754;2023-12-20T00:02:10;29.52;;;15.52;;
64615;SDS011;51027;42.162;24.754;2023-12-20T00:04:36;29.95;;;14.30;;
64615;SDS011;51027;42.162;24.754;2023-12-20T00:07:01;35.80;;;15.95;;
64615;SDS011;51027;42.162;24.754;2023-12-20T00:09:27;25.88;;;13.80;;
64615;SDS011;51027;42.162;24.754;2023-12-20T00:11:52;27.27;;;13.32;;
64615;SDS011;51027;42.162;24.754;2023-12-20T00:14:18;32.45;;;14.98;;
64615;SDS011;51027;42.162;24.754;2023-12-20T00:16:43;30.90;;;15.68;;
64615;SDS011;51027;42.162;24.754;2023-12-20T00:19:08;28.65;;;14.07;;
64615;SDS011;51027;42.162;24.754;2023-12-20T00:21:34;30.13;;;14.32;;
64615;SDS011;51027;42.162;24.754;2023-12-20T00:23:59;30.48;;;14.50;;
64615;SDS011;51027;42.162;24.754;2023-12-20T00:26:25;30.95;;;15.85;;
64615;SDS011;51027;42.162;24.754;2023-12-20T00:28:50;31.40;;;15.10;;
64615;SDS011;51027;42.162;24.754;2023-12-20T00:31:16;31.00;;;15.45;;
64615;SDS011;51027;42.162;24.754;2023-12-20T00:33:41;34.05;;;16.17;;
64615;SDS011;51027;42.162;24.754;2023-12-20T00:36:08;28.88;;;14.93;;
64615;SDS011;51027;42.162;24.754;2023-12-20T00:38:34;30.38;;;14.98;;
64615;SDS011;51027;42.162;24.754;2023-12-20T00:41:00;30.80;;;14.60;;
64615;SDS011;51027;42.162;24.754;2023-12-20T00:43:25;31.77;;;15.65;;
64615;SDS011;51027;42.162;24.754;2023-12-20T00:45:51;33.03;;;15.45;;
64615;SDS011;51027;42.162;24.754;2023-12-20T00:48:17;33.97;;;16.30;;
64615;SDS011;51027;42.162;24.754;2023-12-20T00:50:42;29.40;;;14.38;;
64615;SDS011;51027;42.162;24.754;2023-12-20T00:53:08;29.65;;;15.30;;
64615;SDS011;51027;42.162;24.754;2023-12-20T00:55:33;31.83;;;16.10;;
64615;SDS011;51027;42.162;24.754;2023-12-20T00:57:58;28.40;;;15.05;;
64615;SDS011;51027;42.162;24.754;2023-12-20T01:00:25;28.63;;;15.00;;
64615;SDS011;51027;42.162;24.754;2023-12-20T01:02:50;28.13;;;14.65;;
64615;SDS011;51027;42.162;24.754;2023-12-20T01:05:16;31.90;;;14.60;;
64615;SDS011;51027;42.162;24.754;2023-12-20T01:07:42;31.20;;;14.65;;
64615;SDS011;51027;42.162;24.754;2023-12-20T01:10:08;31.92;;;15.18;;
64615;SDS011;51027;42.162;24.754;2023-12-20T01:12:34;31.27;;;13.90;;
64615;SDS011;51027;42.162;24.754;2023-12-20T01:15:01;25.80;;;13.48;;
64615;SDS011;51027;42.162;24.754;2023-12-20T01:17:26;35.38;;;16.25;;
64615;SDS011;51027;42.162;24.754;2023-12-20T01:19:51;32.90;;;15.77;;
64615;SDS011;51027;42.162;24.754;2023-12-20T01:22:17;31.80;;;15.20;;
64615;SDS011;51027;42.162;24.754;2023-12-20T01:24:42;33.05;;;16.65;;
64615;SDS011;51027;42.162;24.754;2023-12-20T01:27:08;34.08;;;16.15;;
64615;SDS011;51027;42.162;24.754;2023-12-20T01:29:33;31.17;;;14.32;;
64615;SDS011;51027;42.162;24.754;2023-12-20T01:31:58;23.42;;;11.20;;
64615;SDS011;51027;42.162;24.754;2023-12-20T01:34:24;24.15;;;10.98;;
64615;SDS011;51027;42.162;24.754;2023-12-20T01:36:49;21.50;;;8.40;;
64615;SDS011;51027;42.162;24.754;2023-12-20T01:39:14;21.85;;;9.63;;
64615;SDS011;51027;42.162;24.754;2023-12-20T01:41:40;19.35;;;8.32;;
64615;SDS011;51027;42.162;24.754;2023-12-20T01:44:05;21.10;;;8.82;;
64615;SDS011;51027;42.162;24.754;2023-12-20T01:46:31;21.00;;;8.63;;
64615;SDS011;51027;42.162;24.754;2023-12-20T01:48:56;22.17;;;9.00;;
64615;SDS011;51027;42.162;24.754;2023-12-20T01:51:22;23.08;;;8.85;;
64615;SDS011;51027;42.162;24.754;2023-12-20T01:53:48;21.25;;;8.68;;
64615;SDS011;51027;42.162;24.754;2023-12-20T01:56:14;25.77;;;9.73;;
64615;SDS011;51027;42.162;24.754;2023-12-20T01:58:44;21.27;;;9.07;;
64615;SDS011;51027;42.162;24.754;2023-12-20T02:01:12;24.25;;;9.18;;
64615;SDS011;51027;42.162;24.754;2023-12-20T02:03:39;20.65;;;8.10;;
64615;SDS011;51027;42.162;24.754;2023-12-20T02:06:07;24.00;;;8.90;;
64615;SDS011;51027;42.162;24.754;2023-12-20T02:08:33;20.17;;;9.02;;
64615;SDS011;51027;42.162;24.754;2023-12-20T02:11:02;23.35;;;9.15;;
64615;SDS011;51027;42.162;24.754;2023-12-20T02:13:27;21.80;;;9.07;;
64615;SDS011;51027;42.162;24.754;2023-12-20T02:15:54;23.85;;;8.18;;
64615;SDS011;51027;42.162;24.754;2023-12-20T02:18:19;21.67;;;9.25;;
64615;SDS011;51027;42.162;24.754;2023-12-20T02:20:45;23.75;;;9.98;;
64615;SDS011;51027;42.162;24.754;2023-12-20T02:23:10;22.25;;;8.73;;
64615;SDS011;51027;42.162;24.754;2023-12-20T02:25:36;22.90;;;8.27;;
64615;SDS011;51027;42.162;24.754;2023-12-20T02:28:02;21.35;;;8.90;;
64615;SDS011;51027;42.162;24.754;2023-12-20T02:30:29;20.05;;;8.57;;
64615;SDS011;51027;42.162;24.754;2023-12-20T02:32:55;20.45;;;9.00;;
64615;SDS011;51027;42.162;24.754;2023-12-20T02:35:21;18.27;;;8.10;;
64615;SDS011;51027;42.162;24.754;2023-12-20T02:37:46;22.58;;;9.48;;
64615;SDS011;51027;42.162;24.754;2023-12-20T02:40:12;23.42;;;9.07;;
64615;SDS011;51027;42.162;24.754;2023-12-20T02:42:37;20.42;;;8.65;;
64615;SDS011;51027;42.162;24.754;2023-12-20T02:45:03;22.05;;;8.40;;
64615;SDS011;51027;42.162;24.754;2023-12-20T02:47:28;21.20;;;8.65;;
64615;SDS011;51027;42.162;24.754;2023-12-20T02:49:55;22.17;;;10.02;;
64615;SDS011;51027;42.162;24.754;2023-12-20T02:52:20;24.38;;;9.07;;
64615;SDS011;51027;42.162;24.754;2023-12-20T02:54:47;20.05;;;8.85;;
64615;SDS011;51027;42.162;24.754;2023-12-20T02:57:12;20.92;;;9.35;;
64615;SDS011;51027;42.162;24.754;2023-12-20T02:59:38;21.52;;;9.13;;
64615;SDS011;51027;42.162;24.754;2023-12-20T03:02:03;21.10;;;7.85;;
64615;SDS011;51027;42.162;24.754;2023-12-20T03:04:29;23.17;;;9.18;;
64615;SDS011;51027;42.162;24.754;2023-12-20T03:06:54;23.67;;;9.30;;
64615;SDS011;51027;42.162;24.754;2023-12-20T03:09:19;22.65;;;10.00;;
64615;SDS011;51027;42.162;24.754;2023-12-20T03:11:45;21.85;;;9.70;;
64615;SDS011;51027;42.162;24.754;2023-12-20T03:14:10;24.48;;;9.55;;
64615;SDS011;51027;42.162;24.754;2023-12-20T03:16:35;23.75;;;9.05;;
64615;SDS011;51027;42.162;24.754;2023-12-20T03:19:01;22.10;;;9.38;;
64615;SDS011;51027;42.162;24.754;2023-12-20T03:21:27;18.73;;;8.40;;
64615;SDS011;51027;42.162;24.754;2023-12-20T03:23:52;21.35;;;8.48;;
64615;SDS011;51027;42.162;24.754;2023-12-20T03:26:17;21.75;;;9.32;;
64615;SDS011;51027;42.162;24.754;2023-12-20T03:28:44;21.70;;;8.23;;
64615;SDS011;51027;42.162;24.754;2023-12-20T03:31:09;21.60;;;8.80;;
64615;SDS011;51027;42.162;24.754;2023-12-20T03:33:35;18.60;;;7.90;;
64615;SDS011;51027;42.162;24.754;2023-12-20T03:36:00;22.42;;;9.45;;
64615;SDS011;51027;42.162;24.754;2023-12-20T03:38:25;23.80;;;9.05;;
64615;SDS011;51027;42.162;24.754;2023-12-20T03:40:51;21.80;;;9.25;;
64615;SDS011;51027;42.162;24.754;2023-12-20T03:43:16;23.13;;;10.38;;
64615;SDS011;51027;42.162;24.754;2023-12-20T03:45:42;24.38;;;9.32;;
64615;SDS011;51027;42.162;24.754;2023-12-20T03:48:08;21.63;;;10.00;;
64615;SDS011;51027;42.162;24.754;2023-12-20T03:50:34;26.33;;;10.43;;
64615;SDS011;51027;42.162;24.754;2023-12-20T03:53:00;25.48;;;10.65;;
64615;SDS011;51027;42.162;24.754;2023-12-20T03:55:25;23.23;;;10.57;;
64615;SDS011;51027;42.162;24.754;2023-12-20T03:57:50;25.80;;;12.32;;
64615;SDS011;51027;42.162;24.754;2023-12-20T04:00:16;24.83;;;11.75;;
64615;SDS011;51027;42.162;24.754;2023-12-20T04:02:41;25.98;;;13.77;;
64615;SDS011;51027;42.162;24.754;2023-12-20T04:05:07;24.65;;;12.27;;
64615;SDS011;51027;42.162;24.754;2023-12-20T04:07:33;27.15;;;14.23;;
64615;SDS011;51027;42.162;24.754;2023-12-20T04:09:59;29.55;;;13.30;;
64615;SDS011;51027;42.162;24.754;2023-12-20T04:12:25;27.25;;;13.13;;
64615;SDS011;51027;42.162;24.754;2023-12-20T04:14:51;26.17;;;13.40;;
64615;SDS011;51027;42.162;24.754;2023-12-20T04:17:17;28.17;;;12.57;;
64615;SDS011;51027;42.162;24.754;2023-12-20T04:19:43;30.33;;;12.68;;
64615;SDS011;51027;42.162;24.754;2023-12-20T04:22:08;29.65;;;14.45;;
64615;SDS011;51027;42.162;24.754;2023-12-20T04:24:34;31.23;;;14.82;;
64615;SDS011;51027;42.162;24.754;2023-12-20T04:26:59;26.58;;;13.43;;
64615;SDS011;51027;42.162;24.754;2023-12-20T04:29:25;29.30;;;14.38;;
64615;SDS011;51027;42.162;24.754;2023-12-20T04:31:51;30.58;;;15.32;;
64615;SDS011;51027;42.162;24.754;2023-12-20T04:34:16;28.15;;;13.38;;
64615;SDS011;51027;42.162;24.754;2023-12-20T04:36:42;32.20;;;13.20;;
64615;SDS011;51027;42.162;24.754;2023-12-20T04:39:08;28.42;;;13.50;;
64615;SDS011;51027;42.162;24.754;2023-12-20T04:41:33;27.77;;;13.43;;
64615;SDS011;51027;42.162;24.754;2023-12-20T04:43:58;30.52;;;13.50;;
64615;SDS011;51027;42.162;24.754;2023-12-20T04:46:25;29.77;;;15.10;;
64615;SDS011;51027;42.162;24.754;2023-12-20T04:48:51;29.75;;;14.90;;
64615;SDS011;51027;42.162;24.754;2023-12-20T04:51:16;30.00;;;15.10;;
64615;SDS011;51027;42.162;24.754;2023-12-20T04:53:41;29.25;;;14.30;;
64615;SDS011;51027;42.162;24.754;2023-12-20T04:56:07;30.85;;;14.88;;
64615;SDS011;51027;42.162;24.754;2023-12-20T04:58:32;31.30;;;15.88;;
64615;SDS011;51027;42.162;24.754;2023-12-20T05:00:57;32.85;;;17.65;;
64615;SDS011;51027;42.162;24.754;2023-12-20T05:03:23;33.28;;;17.50;;
64615;SDS011;51027;42.162;24.754;2023-12-20T05:05:48;32.42;;;17.02;;
64615;SDS011;51027;42.162;24.754;2023-12-20T05:08:14;35.30;;;17.73;;
64615;SDS011;51027;42.162;24.754;2023-12-20T05:10:40;37.85;;;18.90;;
64615;SDS011;51027;42.162;24.754;2023-12-20T05:13:05;34.33;;;18.25;;
64615;SDS011;51027;42.162;24.754;2023-12-20T05:15:31;32.70;;;17.95;;
64615;SDS011;51027;42.162;24.754;2023-12-20T05:17:56;41.53;;;22.45;;
64615;SDS011;51027;42.162;24.754;2023-12-20T05:20:22;37.83;;;18.80;;
64615;SDS011;51027;42.162;24.754;2023-12-20T05:22:48;37.78;;;21.17;;
64615;SDS011;51027;42.162;24.754;2023-12-20T05:25:13;42.10;;;21.77;;
64615;SDS011;51027;42.162;24.754;2023-12-20T05:27:39;44.13;;;23.05;;
64615;SDS011;51027;42.162;24.754;2023-12-20T05:30:05;45.38;;;24.95;;
64615;SDS011;51027;42.162;24.754;2023-12-20T05:32:31;42.90;;;23.98;;
64615;SDS011;51027;42.162;24.754;2023-12-20T05:34:56;43.13;;;23.90;;
64615;SDS011;51027;42.162;24.754;2023-12-20T05:37:22;43.50;;;22.67;;
64615;SDS011;51027;42.162;24.754;2023-12-20T05:39:47;46.22;;;24.20;;
64615;SDS011;51027;42.162;24.754;2023-12-20T05:42:13;43.53;;;24.17;;
64615;SDS011;51027;42.162;24.754;2023-12-20T05:44:38;41.97;;;24.27;;
64615;SDS011;51027;42.162;24.754;2023-12-20T05:47:03;42.53;;;21.90;;
64615;SDS011;51027;42.162;24.754;2023-12-20T05:49:29;43.05;;;24.20;;
64615;SDS011;51027;42.162;24.754;2023-12-20T05:51:54;47.78;;;26.52;;
64615;SDS011;51027;42.162;24.754;2023-12-20T05:54:20;45.33;;;24.05;;
64615;SDS011;51027;42.162;24.754;2023-12-20T05:56:46;49.35;;;26.38;;
64615;SDS011;51027;42.162;24.754;2023-12-20T05:59:12;45.97;;;25.42;;
64615;SDS011;51027;42.162;24.754;2023-12-20T06:01:37;51.95;;;26.65;;
64615;SDS011;51027;42.162;24.754;2023-12-20T06:04:03;45.00;;;23.00;;
64615;SDS011;51027;42.162;24.754;2023-12-20T06:06:29;42.35;;;25.17;;
64615;SDS011;51027;42.162;24.754;2023-12-20T06:08:55;48.92;;;27.00;;
64615;SDS011;51027;42.162;24.754;2023-12-20T06:11:21;41.15;;;24.00;;
64615;SDS011;51027;42.162;24.754;2023-12-20T06:13:46;37.78;;;21.13;;
64615;SDS011;51027;42.162;24.754;2023-12-20T06:16:12;36.55;;;20.13;;
64615;SDS011;51027;42.162;24.754;2023-12-20T06:18:37;44.63;;;23.80;;
64615;SDS011;51027;42.162;24.754;2023-12-20T06:21:03;39.22;;;20.83;;
64615;SDS011;51027;42.162;24.754;2023-12-20T06:23:29;43.40;;;22.33;;
64615;SDS011;51027;42.162;24.754;2023-12-20T06:25:54;36.83;;;20.00;;
64615;SDS011;51027;42.162;24.754;2023-12-20T06:28:20;38.85;;;22.05;;
64615;SDS011;51027;42.162;24.754;2023-12-20T06:30:45;41.80;;;23.50;;
64615;SDS011;51027;42.162;24.754;2023-12-20T06:33:12;39.88;;;24.08;;
64615;SDS011;51027;42.162;24.754;2023-12-20T06:35:38;37.55;;;23.60;;
64615;SDS011;51027;42.162;24.754;2023-12-20T06:38:03;38.47;;;21.48;;
64615;SDS011;51027;42.162;24.754;2023-12-20T06:40:29;36.20;;;21.73;;
64615;SDS011;51027;42.162;24.754;2023-12-20T06:42:54;39.92;;;21.27;;
64615;SDS011;51027;42.162;24.754;2023-12-20T06:45:20;38.55;;;18.33;;
64615;SDS011;51027;42.162;24.754;2023-12-20T06:47:45;29.75;;;15.77;;
64615;SDS011;51027;42.162;24.754;2023-12-20T06:50:11;26.67;;;15.45;;
64615;SDS011;51027;42.162;24.754;2023-12-20T06:52:36;30.98;;;14.23;;
64615;SDS011;51027;42.162;24.754;2023-12-20T06:55:02;29.60;;;14.23;;
64615;SDS011;51027;42.162;24.754;2023-12-20T06:57:28;28.75;;;13.27;;
64615;SDS011;51027;42.162;24.754;2023-12-20T06:59:54;30.40;;;14.90;;
64615;SDS011;51027;42.162;24.754;2023-12-20T07:02:20;28.20;;;14.57;;
64615;SDS011;51027;42.162;24.754;2023-12-20T07:04:47;26.40;;;14.15;;
64615;SDS011;51027;42.162;24.754;2023-12-20T07:07:12;29.27;;;16.20;;
64615;SDS011;51027;42.162;24.754;2023-12-20T07:09:38;35.33;;;17.58;;
64615;SDS011;51027;42.162;24.754;2023-12-20T07:12:04;26.63;;;15.40;;
64615;SDS011;51027;42.162;24.754;2023-12-20T07:14:29;31.52;;;16.60;;
64615;SDS011;51027;42.162;24.754;2023-12-20T07:16:55;31.95;;;15.10;;
64615;SDS011;51027;42.162;24.754;2023-12-20T07:19:20;29.00;;;15.77;;
64615;SDS011;51027;42.162;24.754;2023-12-20T07:21:46;28.63;;;15.27;;
64615;SDS011;51027;42.162;24.754;2023-12-20T07:24:11;30.35;;;14.75;;
64615;SDS011;51027;42.162;24.754;2023-12-20T07:26:37;28.52;;;13.77;;
64615;SDS011;51027;42.162;24.754;2023-12-20T07:29:03;25.70;;;14.73;;
64615;SDS011;51027;42.162;24.754;2023-12-20T07:31:29;28.10;;;15.10;;
64615;SDS011;51027;42.162;24.754;2023-12-20T07:33:54;29.10;;;14.75;;
64615;SDS011;51027;42.162;24.754;2023-12-20T07:36:20;28.20;;;16.02;;
64615;SDS011;51027;42.162;24.754;2023-12-20T07:38:46;29.95;;;16.67;;
64615;SDS011;51027;42.162;24.754;2023-12-20T07:41:12;30.17;;;18.30;;
64615;SDS011;51027;42.162;24.754;2023-12-20T07:43:37;31.83;;;18.50;;
64615;SDS011;51027;42.162;24.754;2023-12-20T07:46:04;32.10;;;18.75;;
64615;SDS011;51027;42.162;24.754;2023-12-20T07:48:31;32.45;;;19.48;;
64615;SDS011;51027;42.162;24.754;2023-12-20T07:50:56;32.60;;;19.00;;
64615;SDS011;51027;42.162;24.754;2023-12-20T07:53:21;33.80;;;19.70;;
64615;SDS011;51027;42.162;24.754;2023-12-20T07:55:47;31.15;;;18.13;;
64615;SDS011;51027;42.162;24.754;2023-12-20T07:58:12;30.48;;;16.75;;
64615;SDS011;51027;42.162;24.754;2023-12-20T08:00:38;29.85;;;17.73;;
64615;SDS011;51027;42.162;24.754;2023-12-20T08:03:03;26.92;;;14.82;;
64615;SDS011;51027;42.162;24.754;2023-12-20T08:05:29;26.38;;;13.30;;
64615;SDS011;51027;42.162;24.754;2023-12-20T08:07:54;26.90;;;13.40;;
64615;SDS011;51027;42.162;24.754;2023-12-20T08:10:19;27.13;;;12.88;;
64615;SDS011;51027;42.162;24.754;2023-12-20T08:12:45;28.55;;;13.50;;
64615;SDS011;51027;42.162;24.754;2023-12-20T08:15:10;28.45;;;13.45;;
64615;SDS011;51027;42.162;24.754;2023-12-20T08:17:36;27.42;;;15.45;;
64615;SDS011;51027;42.162;24.754;2023-12-20T08:20:01;33.70;;;17.02;;
64615;SDS011;51027;42.162;24.754;2023-12-20T08:22:27;32.75;;;17.67;;
64615;SDS011;51027;42.162;24.754;2023-12-20T08:24:52;30.85;;;15.98;;
64615;SDS011;51027;42.162;24.754;2023-12-20T08:27:17;28.50;;;14.88;;
64615;SDS011;51027;42.162;24.754;2023-12-20T08:29:46;29.30;;;14.60;;
64615;SDS011;51027;42.162;24.754;2023-12-20T08:32:12;31.50;;;16.07;;
64615;SDS011;51027;42.162;24.754;2023-12-20T08:34:37;24.13;;;13.23;;
64615;SDS011;51027;42.162;24.754;2023-12-20T08:37:03;27.98;;;12.63;;
64615;SDS011;51027;42.162;24.754;2023-12-20T08:39:28;25.15;;;13.63;;
64615;SDS011;51027;42.162;24.754;2023-12-20T08:41:55;25.30;;;14.18;;
64615;SDS011;51027;42.162;24.754;2023-12-20T08:44:20;23.90;;;12.93;;
64615;SDS011;51027;42.162;24.754;2023-12-20T08:46:47;25.92;;;13.07;;
64615;SDS011;51027;42.162;24.754;2023-12-20T08:49:13;24.90;;;12.45;;
64615;SDS011;51027;42.162;24.754;2023-12-20T08:51:38;27.20;;;13.45;;
64615;SDS011;51027;42.162;24.754;2023-12-20T08:54:06;25.67;;;12.75;;
64615;SDS011;51027;42.162;24.754;2023-12-20T08:56:33;24.80;;;12.40;;
64615;SDS011;51027;42.162;24.754;2023-12-20T08:58:59;25.50;;;13.50;;
64615;SDS011;51027;42.162;24.754;2023-12-20T09:01:24;28.20;;;13.50;;
64615;SDS011;51027;42.162;24.754;2023-12-20T09:03:49;28.92;;;14.20;;
64615;SDS011;51027;42.162;24.754;2023-12-20T09:06:15;27.20;;;13.23;;
64615;SDS011;51027;42.162;24.754;2023-12-20T09:08:40;27.85;;;13.77;;
64615;SDS011;51027;42.162;24.754;2023-12-20T09:11:06;27.55;;;13.45;;
64615;SDS011;51027;42.162;24.754;2023-12-20T09:13:32;24.33;;;13.20;;
64615;SDS011;51027;42.162;24.754;2023-12-20T09:15:57;24.50;;;11.43;;
64615;SDS011;51027;42.162;24.754;2023-12-20T09:18:23;23.20;;;11.55;;
64615;SDS011;51027;42.162;24.754;2023-12-20T09:20:48;21.75;;;10.50;;
64615;SDS011;51027;42.162;24.754;2023-12-20T09:23:14;22.77;;;10.75;;
64615;SDS011;51027;42.162;24.754;2023-12-20T09:25:39;23.05;;;11.00;;
64615;SDS011;51027;42.162;24.754;2023-12-20T09:28:05;24.60;;;11.23;;
64615;SDS011;51027;42.162;24.754;2023-12-20T09:30:30;20.65;;;10.25;;
64615;SDS011;51027;42.162;24.754;2023-12-20T09:32:56;21.95;;;10.82;;
64615;SDS011;51027;42.162;24.754;2023-12-20T09:35:22;23.38;;;11.20;;
64615;SDS011;51027;42.162;24.754;2023-12-20T09:37:47;23.60;;;10.85;;
64615;SDS011;51027;42.162;24.754;2023-12-20T09:40:13;22.75;;;10.90;;
64615;SDS011;51027;42.162;24.754;2023-12-20T09:45:20;21.27;;;10.95;;
64615;SDS011;51027;42.162;24.754;2023-12-20T09:47:49;22.33;;;11.07;;
64615;SDS011;51027;42.162;24.754;2023-12-20T09:50:17;23.38;;;10.50;;
64615;SDS011;51027;42.162;24.754;2023-12-20T09:52:44;23.98;;;11.10;;
64615;SDS011;51027;42.162;24.754;2023-12-20T09:55:14;22.27;;;11.15;;
64615;SDS011;51027;42.162;24.754;2023-12-20T09:57:42;24.27;;;10.43;;
64615;SDS011;51027;42.162;24.754;2023-12-20T10:00:07;26.08;;;11.98;;
64615;SDS011;51027;42.162;24.754;2023-12-20T10:02:33;23.98;;;11.48;;
64615;SDS011;51027;42.162;24.754;2023-12-20T10:07:33;23.67;;;11.02;;
64615;SDS011;51027;42.162;24.754;2023-12-20T10:10:00;24.33;;;11.32;;
64615;SDS011;51027;42.162;24.754;2023-12-20T10:12:27;23.52;;;11.00;;
64615;SDS011;51027;42.162;24.754;2023-12-20T10:14:52;24.27;;;11.15;;
64615;SDS011;51027;42.162;24.754;2023-12-20T10:17:18;21.92;;;11.50;;
64615;SDS011;51027;42.162;24.754;2023-12-20T10:19:43;22.30;;;10.80;;
64615;SDS011;51027;42.162;24.754;2023-12-20T10:22:09;23.67;;;11.13;;
64615;SDS011;51027;42.162;24.754;2023-12-20T10:24:35;22.73;;;11.48;;
64615;SDS011;51027;42.162;24.754;2023-12-20T10:27:01;23.00;;;9.52;;
64615;SDS011;51027;42.162;24.754;2023-12-20T10:29:31;19.83;;;9.82;;
64615;SDS011;51027;42.162;24.754;2023-12-20T10:31:58;22.67;;;10.60;;
64615;SDS011;51027;42.162;24.754;2023-12-20T10:34:23;21.42;;;10.30;;
64615;SDS011;51027;42.162;24.754;2023-12-20T10:36:49;22.33;;;10.15;;
64615;SDS011;51027;42.162;24.754;2023-12-20T10:39:14;22.55;;;9.77;;
64615;SDS011;51027;42.162;24.754;2023-12-20T10:41:40;20.38;;;10.40;;
64615;SDS011;51027;42.162;24.754;2023-12-20T10:44:08;19.88;;;9.73;;
64615;SDS011;51027;42.162;24.754;2023-12-20T10:46:35;21.55;;;9.95;;
64615;SDS011;51027;42.162;24.754;2023-12-20T10:49:03;22.35;;;9.90;;
64615;SDS011;51027;42.162;24.754;2023-12-20T10:51:31;22.30;;;10.55;;
64615;SDS011;51027;42.162;24.754;2023-12-20T10:53:58;20.45;;;10.38;;
64615;SDS011;51027;42.162;24.754;2023-12-20T10:56:24;21.52;;;11.00;;
64615;SDS011;51027;42.162;24.754;2023-12-20T10:58:54;24.80;;;13.65;;
64615;SDS011;51027;42.162;24.754;2023-12-20T11:01:22;25.27;;;12.85;;
64615;SDS011;51027;42.162;24.754;2023-12-20T11:03:49;24.77;;;13.45;;
64615;SDS011;51027;42.162;24.754;2023-12-20T11:11:56;23.92;;;12.40;;
64615;SDS011;51027;42.162;24.754;2023-12-20T11:17:11;23.00;;;11.43;;
64615;SDS011;51027;42.162;24.754;2023-12-20T11:22:25;22.65;;;11.40;;
64615;SDS011;51027;42.162;24.754;2023-12-20T11:24:53;24.00;;;11.23;;
64615;SDS011;51027;42.162;24.754;2023-12-20T11:27:20;23.20;;;11.90;;
64615;SDS011;51027;42.162;24.754;2023-12-20T11:29:52;25.05;;;11.90;;
64615;SDS011;51027;42.162;24.754;2023-12-20T11:34:50;23.92;;;12.50;;
64615;SDS011;51027;42.162;24.754;2023-12-20T11:37:19;23.52;;;11.32;;
64615;SDS011;51027;42.162;24.754;2023-12-20T11:39:45;24.45;;;11.77;;
64615;SDS011;51027;42.162;24.754;2023-12-20T11:42:21;24.58;;;11.95;;
64615;SDS011;51027;42.162;24.754;2023-12-20T11:44:47;24.00;;;11.48;;
64615;SDS011;51027;42.162;24.754;2023-12-20T11:47:12;28.88;;;13.43;;
64615;SDS011;51027;42.162;24.754;2023-12-20T11:49:39;25.10;;;12.38;;
64615;SDS011;51027;42.162;24.754;2023-12-20T11:52:05;27.33;;;13.75;;
64615;SDS011;51027;42.162;24.754;2023-12-20T11:54:30;26.35;;;14.43;;
64615;SDS011;51027;42.162;24.754;2023-12-20T11:56:56;26.13;;;12.07;;
64615;SDS011;51027;42.162;24.754;2023-12-20T11:59:22;25.88;;;13.02;;
64615;SDS011;51027;42.162;24.754;2023-12-20T12:01:48;23.60;;;12.60;;
64615;SDS011;51027;42.162;24.754;2023-12-20T12:04:15;23.33;;;12.75;;
64615;SDS011;51027;42.162;24.754;2023-12-20T12:06:42;25.80;;;12.52;;
64615;SDS011;51027;42.162;24.754;2023-12-20T12:09:08;24.13;;;12.35;;
64615;SDS011;51027;42.162;24.754;2023-12-20T12:11:33;26.50;;;12.25;;
64615;SDS011;51027;42.162;24.754;2023-12-20T12:13:59;24.88;;;11.63;;
64615;SDS011;51027;42.162;24.754;2023-12-20T12:16:25;26.58;;;12.70;;
64615;SDS011;51027;42.162;24.754;2023-12-20T12:18:57;27.40;;;14.18;;
64615;SDS011;51027;42.162;24.754;2023-12-20T12:21:23;28.70;;;13.77;;
64615;SDS011;51027;42.162;24.754;2023-12-20T12:23:49;29.42;;;14.93;;
64615;SDS011;51027;42.162;24.754;2023-12-20T12:26:15;28.75;;;15.43;;
64615;SDS011;51027;42.162;24.754;2023-12-20T12:28:40;30.75;;;16.67;;
64615;SDS011;51027;42.162;24.754;2023-12-20T12:31:13;31.48;;;18.45;;
64615;SDS011;51027;42.162;24.754;2023-12-20T12:33:42;33.95;;;19.13;;
64615;SDS011;51027;42.162;24.754;2023-12-20T12:36:09;35.22;;;20.00;;
64615;SDS011;51027;42.162;24.754;2023-12-20T12:38:36;37.80;;;20.73;;
64615;SDS011;51027;42.162;24.754;2023-12-20T12:41:01;41.30;;;23.15;;
64615;SDS011;51027;42.162;24.754;2023-12-20T12:43:27;39.88;;;22.48;;
64615;SDS011;51027;42.162;24.754;2023-12-20T12:45:53;36.55;;;21.55;;
64615;SDS011;51027;42.162;24.754;2023-12-20T12:48:18;39.88;;;22.63;;
64615;SDS011;51027;42.162;24.754;2023-12-20T12:50:45;38.10;;;23.40;;
64615;SDS011;51027;42.162;24.754;2023-12-20T12:53:11;35.53;;;21.30;;
64615;SDS011;51027;42.162;24.754;2023-12-20T12:55:36;34.80;;;20.10;;
64615;SDS011;51027;42.162;24.754;2023-12-20T12:58:02;37.70;;;19.98;;
64615;SDS011;51027;42.162;24.754;2023-12-20T13:00:27;36.10;;;20.20;;
64615;SDS011;51027;42.162;24.754;2023-12-20T13:02:56;36.47;;;19.85;;
64615;SDS011;51027;42.162;24.754;2023-12-20T13:05:21;34.92;;;19.63;;
64615;SDS011;51027;42.162;24.754;2023-12-20T13:07:46;34.45;;;19.00;;
64615;SDS011;51027;42.162;24.754;2023-12-20T13:10:12;37.13;;;19.55;;
64615;SDS011;51027;42.162;24.754;2023-12-20T13:12:38;36.95;;;20.02;;
64615;SDS011;51027;42.162;24.754;2023-12-20T13:15:03;33.63;;;19.13;;
64615;SDS011;51027;42.162;24.754;2023-12-20T13:17:29;42.40;;;20.95;;
64615;SDS011;51027;42.162;24.754;2023-12-20T13:19:55;36.47;;;21.17;;
64615;SDS011;51027;42.162;24.754;2023-12-20T13:22:20;35.97;;;18.80;;
64615;SDS011;51027;42.162;24.754;2023-12-20T13:24:45;41.33;;;21.75;;
64615;SDS011;51027;42.162;24.754;2023-12-20T13:27:11;31.80;;;17.20;;
64615;SDS011;51027;42.162;24.754;2023-12-20T13:29:36;37.17;;;18.42;;
64615;SDS011;51027;42.162;24.754;2023-12-20T13:32:02;36.33;;;18.98;;
64615;SDS011;51027;42.162;24.754;2023-12-20T13:34:28;36.05;;;17.80;;
64615;SDS011;51027;42.162;24.754;2023-12-20T13:36:54;32.53;;;18.23;;
64615;SDS011;51027;42.162;24.754;2023-12-20T13:39:19;32.45;;;17.23;;
64615;SDS011;51027;42.162;24.754;2023-12-20T13:41:46;32.70;;;17.80;;
64615;SDS011;51027;42.162;24.754;2023-12-20T13:44:12;31.02;;;16.90;;
64615;SDS011;51027;42.162;24.754;2023-12-20T13:46:37;31.38;;;16.52;;
64615;SDS011;51027;42.162;24.754;2023-12-20T13:49:03;33.05;;;17.48;;
64615;SDS011;51027;42.162;24.754;2023-12-20T13:51:30;36.90;;;17.45;;
64615;SDS011;51027;42.162;24.754;2023-12-20T13:53:55;33.60;;;17.05;;
64615;SDS011;51027;42.162;24.754;2023-12-20T13:56:21;33.35;;;16.00;;
64615;SDS011;51027;42.162;24.754;2023-12-20T13:58:48;29.70;;;16.65;;
64615;SDS011;51027;42.162;24.754;2023-12-20T14:01:13;28.40;;;14.35;;
64615;SDS011;51027;42.162;24.754;2023-12-20T14:03:39;33.78;;;16.83;;
64615;SDS011;51027;42.162;24.754;2023-12-20T14:06:06;35.22;;;18.58;;
64615;SDS011;51027;42.162;24.754;2023-12-20T14:08:31;35.00;;;18.92;;
64615;SDS011;51027;42.162;24.754;2023-12-20T14:10:57;34.15;;;18.42;;
64615;SDS011;51027;42.162;24.754;2023-12-20T14:13:22;33.03;;;16.40;;
64615;SDS011;51027;42.162;24.754;2023-12-20T14:15:47;30.67;;;15.93;;
64615;SDS011;51027;42.162;24.754;2023-12-20T14:18:14;35.17;;;17.58;;
64615;SDS011;51027;42.162;24.754;2023-12-20T14:20:40;39.45;;;19.83;;
64615;SDS011;51027;42.162;24.754;2023-12-20T14:23:08;37.38;;;20.08;;